createdAt,value
2019-03-31T00:00:09.705Z,3.80
2019-03-31T00:03:13.586Z,3.80
2019-03-31T00:06:17.468Z,3.90
2019-03-31T00:09:21.310Z,3.90
2019-03-31T00:12:25.896Z,3.80
2019-03-31T00:15:29.828Z,3.80
2019-03-31T00:18:33.717Z,3.70
2019-03-31T00:21:37.591Z,3.70
2019-03-31T00:24:41.486Z,3.70
2019-03-31T00:27:45.313Z,3.70
2019-03-31T00:30:49.223Z,3.50
2019-03-31T00:33:53.074Z,3.50
2019-03-31T00:36:56.971Z,3.40
2019-03-31T00:40:00.805Z,3.50
2019-03-31T00:43:04.706Z,3.60
2019-03-31T00:46:08.565Z,3.60
2019-03-31T00:49:12.477Z,3.60
2019-03-31T00:52:16.299Z,3.60
2019-03-31T00:55:20.209Z,3.60
2019-03-31T00:58:24.105Z,3.70
2019-03-31T01:01:36.477Z,3.60
2019-03-31T01:04:35.785Z,3.60
2019-03-31T01:07:39.928Z,3.60
2019-03-31T01:10:44.349Z,3.60
2019-03-31T01:13:48.327Z,3.60
2019-03-31T01:16:52.262Z,3.50
2019-03-31T01:19:57.605Z,3.50
2019-03-31T01:23:01.556Z,3.50
2019-03-31T01:26:06.210Z,3.50
2019-03-31T01:29:10.188Z,3.50
2019-03-31T01:32:14.307Z,3.60
2019-03-31T01:35:18.385Z,3.50
2019-03-31T01:38:22.415Z,3.50
2019-03-31T01:41:26.330Z,3.50
2019-03-31T01:44:30.224Z,3.50
2019-03-31T01:47:34.230Z,3.50
2019-03-31T01:50:38.154Z,3.50
2019-03-31T01:53:42.016Z,3.40
2019-03-31T01:56:45.842Z,3.40
2019-03-31T01:59:49.760Z,3.40
2019-03-31T02:02:53.621Z,3.40
2019-03-31T02:05:57.507Z,3.30
2019-03-31T02:09:01.389Z,3.30
2019-03-31T02:12:05.275Z,3.20
2019-03-31T02:15:09.351Z,3.10
2019-03-31T02:18:13.185Z,3.00
2019-03-31T02:21:17.068Z,2.90
2019-03-31T02:24:20.915Z,2.80
2019-03-31T02:27:25.647Z,2.70
2019-03-31T02:30:30.150Z,2.60
2019-03-31T02:33:34.087Z,2.60
2019-03-31T02:36:37.895Z,2.60
2019-03-31T02:39:41.755Z,2.60
2019-03-31T02:42:45.717Z,2.60
2019-03-31T02:45:49.551Z,2.60
2019-03-31T02:48:53.433Z,2.60
2019-03-31T02:51:57.272Z,2.70
2019-03-31T02:55:01.146Z,2.80
2019-03-31T02:58:06.286Z,2.90
2019-03-31T03:01:10.766Z,3.00
2019-03-31T03:04:17.146Z,2.90
2019-03-31T03:07:21.286Z,2.90
2019-03-31T03:10:27.453Z,2.80
2019-03-31T03:13:34.448Z,2.70
2019-03-31T03:16:38.468Z,2.50
2019-03-31T03:19:42.337Z,2.30
2019-03-31T03:22:46.232Z,2.10
2019-03-31T03:25:56.415Z,1.90
2019-03-31T03:28:55.596Z,1.70
2019-03-31T03:31:59.505Z,1.70
2019-03-31T03:35:03.352Z,1.50
2019-03-31T03:38:07.259Z,1.40
2019-03-31T03:41:11.171Z,1.40
2019-03-31T03:44:15.009Z,1.30
2019-03-31T03:47:18.921Z,1.20
2019-03-31T03:50:22.814Z,1.20
2019-03-31T03:53:26.691Z,1.20
2019-03-31T03:56:30.576Z,1.30
2019-03-31T03:59:34.381Z,1.40
2019-03-31T04:02:38.285Z,1.40
2019-03-31T04:05:42.167Z,1.50
2019-03-31T04:08:46.069Z,1.60
2019-03-31T04:11:49.953Z,1.70
2019-03-31T04:14:53.787Z,1.80
2019-03-31T04:17:57.659Z,1.80
2019-03-31T04:21:01.552Z,1.80
2019-03-31T04:24:05.434Z,1.80
2019-03-31T04:27:09.269Z,1.80
2019-03-31T04:30:13.206Z,1.80
2019-03-31T04:33:17.091Z,2.00
2019-03-31T04:36:20.988Z,2.00
2019-03-31T04:39:24.818Z,2.20
2019-03-31T04:42:28.714Z,2.30
2019-03-31T04:45:32.602Z,2.50
2019-03-31T04:48:36.439Z,2.60
2019-03-31T04:51:40.336Z,2.70
2019-03-31T04:54:44.247Z,2.80
2019-03-31T04:57:48.066Z,2.90
2019-03-31T05:00:51.946Z,3.00
2019-03-31T05:04:04.608Z,3.10
2019-03-31T05:07:01.350Z,3.30
2019-03-31T05:10:06.833Z,3.50
2019-03-31T05:13:10.709Z,3.60
2019-03-31T05:16:14.545Z,3.80
2019-03-31T05:19:18.447Z,3.90
2019-03-31T05:22:22.353Z,4.00
2019-03-31T05:25:27.917Z,4.50
2019-03-31T05:28:31.798Z,5.70
2019-03-31T05:31:35.677Z,6.90
2019-03-31T05:34:39.561Z,7.50
2019-03-31T05:37:50.973Z,7.70
2019-03-31T05:40:48.960Z,8.10
2019-03-31T05:44:05.212Z,9.30
2019-03-31T05:46:58.380Z,11.70
2019-03-31T05:50:02.308Z,14.40
2019-03-31T05:53:06.200Z,16.90
2019-03-31T05:56:10.110Z,18.70
2019-03-31T05:59:13.952Z,20.80
2019-03-31T06:02:17.817Z,21.50
2019-03-31T06:05:21.725Z,22.70
2019-03-31T06:08:25.586Z,23.30
2019-03-31T06:11:29.465Z,24.10
2019-03-31T06:14:33.342Z,24.70
2019-03-31T06:17:37.228Z,25.20
2019-03-31T06:20:41.108Z,25.30
2019-03-31T06:23:44.946Z,26.40
2019-03-31T06:26:48.830Z,27.30
2019-03-31T06:29:52.656Z,28.00
2019-03-31T06:32:56.535Z,28.60
2019-03-31T06:36:00.375Z,28.60
2019-03-31T06:39:06.470Z,29.60
2019-03-31T06:42:10.367Z,29.50
2019-03-31T06:45:14.206Z,28.80
2019-03-31T06:48:18.105Z,30.20
2019-03-31T06:51:21.985Z,29.80
2019-03-31T06:54:25.885Z,30.30
2019-03-31T06:57:29.771Z,31.90
2019-03-31T07:00:33.661Z,31.90
2019-03-31T07:03:37.607Z,32.70
2019-03-31T07:06:41.513Z,33.70
2019-03-31T07:09:45.387Z,34.40
2019-03-31T07:12:49.278Z,34.60
2019-03-31T07:15:53.179Z,34.70
2019-03-31T07:18:57.022Z,35.00
2019-03-31T07:22:00.891Z,36.40
2019-03-31T07:25:07.088Z,37.50
2019-03-31T07:28:11.010Z,37.10
2019-03-31T07:31:14.826Z,37.70
2019-03-31T07:34:18.707Z,36.90
2019-03-31T07:37:22.565Z,36.90
2019-03-31T07:40:26.499Z,37.70
2019-03-31T07:43:30.366Z,38.30
2019-03-31T07:46:34.233Z,38.70
2019-03-31T07:49:38.155Z,38.00
2019-03-31T07:52:42.001Z,38.10
2019-03-31T07:55:45.887Z,38.50
2019-03-31T07:58:49.756Z,37.60
2019-03-31T08:01:53.629Z,37.30
2019-03-31T08:04:57.492Z,37.80
2019-03-31T08:08:01.336Z,35.60
2019-03-31T08:11:05.185Z,34.60
2019-03-31T08:14:09.146Z,33.90
2019-03-31T08:17:13.007Z,33.80
2019-03-31T08:20:18.907Z,34.60
2019-03-31T08:23:22.806Z,33.60
2019-03-31T08:26:26.747Z,31.30
2019-03-31T08:29:30.660Z,28.50
2019-03-31T08:32:34.467Z,25.20
2019-03-31T08:35:47.355Z,23.20
2019-03-31T08:38:43.879Z,21.50
2019-03-31T08:44:53.288Z,20.90
2019-03-31T08:47:57.206Z,20.50
2019-03-31T08:51:01.067Z,19.90
2019-03-31T08:54:05.210Z,20.00
2019-03-31T08:57:09.270Z,19.90
2019-03-31T09:00:16.022Z,19.40
2019-03-31T09:03:19.890Z,19.60
2019-03-31T09:06:24.135Z,19.60
2019-03-31T09:09:28.094Z,19.50
2019-03-31T09:12:31.928Z,19.30
2019-03-31T09:15:35.840Z,19.20
2019-03-31T09:18:39.694Z,19.00
2019-03-31T09:21:43.649Z,19.00
2019-03-31T09:24:47.806Z,19.20
2019-03-31T09:27:51.690Z,19.60
2019-03-31T09:30:55.525Z,20.10
2019-03-31T09:33:59.419Z,20.30
2019-03-31T09:37:03.261Z,20.80
2019-03-31T09:40:08.784Z,21.10
2019-03-31T09:43:12.623Z,21.60
2019-03-31T09:46:16.529Z,22.50
2019-03-31T09:49:20.368Z,23.80
2019-03-31T09:52:25.191Z,24.20
2019-03-31T09:55:29.034Z,24.30
2019-03-31T09:58:32.907Z,24.10
2019-03-31T10:01:36.830Z,24.70
2019-03-31T10:04:40.684Z,24.90
2019-03-31T10:07:45.612Z,24.20
2019-03-31T10:10:49.540Z,24.60
2019-03-31T10:13:53.430Z,24.90
2019-03-31T10:16:57.261Z,24.90
2019-03-31T10:20:01.152Z,25.70
2019-03-31T10:23:05.138Z,27.20
2019-03-31T10:26:08.991Z,28.00
2019-03-31T10:29:12.905Z,27.60
2019-03-31T10:32:16.736Z,28.60
2019-03-31T10:35:20.626Z,28.50
2019-03-31T10:38:24.585Z,28.50
2019-03-31T10:41:30.919Z,27.80
2019-03-31T10:44:33.981Z,27.60
2019-03-31T10:47:37.871Z,28.50
2019-03-31T10:50:41.723Z,29.40
2019-03-31T10:53:45.628Z,29.50
2019-03-31T10:56:49.550Z,28.20
2019-03-31T10:59:53.429Z,26.90
2019-03-31T11:02:57.265Z,25.80
2019-03-31T11:06:01.197Z,24.70
2019-03-31T11:09:06.989Z,24.20
2019-03-31T11:12:10.853Z,23.90
2019-03-31T11:15:14.721Z,23.40
2019-03-31T11:18:18.620Z,23.10
2019-03-31T11:21:26.785Z,22.50
2019-03-31T11:24:30.688Z,22.10
2019-03-31T11:27:34.721Z,21.90
2019-03-31T11:30:38.579Z,21.70
2019-03-31T11:33:43.793Z,21.50
2019-03-31T11:36:47.678Z,21.70
2019-03-31T11:39:51.538Z,21.70
2019-03-31T11:42:55.415Z,21.70
2019-03-31T11:45:59.343Z,21.60
2019-03-31T11:49:03.183Z,21.50
2019-03-31T11:52:07.049Z,21.60
2019-03-31T11:55:11.060Z,21.20
2019-03-31T11:58:14.946Z,21.10
2019-03-31T12:01:18.947Z,20.80
2019-03-31T12:04:22.760Z,20.40
2019-03-31T12:07:28.621Z,20.40
2019-03-31T12:10:32.955Z,20.40
2019-03-31T12:13:36.787Z,20.70
2019-03-31T12:16:40.917Z,20.60
2019-03-31T12:19:44.770Z,20.60
2019-03-31T12:22:48.633Z,20.40
2019-03-31T12:25:52.467Z,20.30
2019-03-31T12:28:56.363Z,20.40
2019-03-31T12:32:00.304Z,20.60
2019-03-31T12:35:05.361Z,20.70
2019-03-31T12:38:09.240Z,20.70
2019-03-31T12:41:13.101Z,20.70
2019-03-31T12:44:16.966Z,20.70
2019-03-31T12:47:20.965Z,20.90
2019-03-31T12:50:24.870Z,21.00
2019-03-31T12:53:28.747Z,21.00
2019-03-31T12:56:32.685Z,21.10
2019-03-31T12:59:36.566Z,21.20
2019-03-31T13:02:41.338Z,20.90
2019-03-31T13:05:45.163Z,20.90
2019-03-31T13:08:49.070Z,21.10
2019-03-31T13:11:52.904Z,21.10
2019-03-31T13:14:56.979Z,21.30
2019-03-31T13:18:00.985Z,21.60
2019-03-31T13:21:04.829Z,21.80
2019-03-31T13:24:08.681Z,21.80
2019-03-31T13:27:12.515Z,21.70
2019-03-31T13:30:16.687Z,21.80
2019-03-31T13:33:20.573Z,21.90
2019-03-31T13:36:24.493Z,22.10
2019-03-31T13:39:28.331Z,22.00
2019-03-31T13:42:32.256Z,22.20
2019-03-31T13:45:36.085Z,22.20
2019-03-31T13:48:40.030Z,22.10
2019-03-31T13:51:44.226Z,22.10
2019-03-31T13:54:48.100Z,21.60
2019-03-31T13:57:53.165Z,21.40
2019-03-31T14:00:57.699Z,21.50
2019-03-31T14:04:03.484Z,21.70
2019-03-31T14:07:07.126Z,21.70
2019-03-31T14:10:11.123Z,21.90
2019-03-31T14:13:14.959Z,21.90
2019-03-31T14:16:18.906Z,22.10
2019-03-31T14:19:22.729Z,22.00
2019-03-31T14:22:27.454Z,21.80
2019-03-31T14:25:31.309Z,21.20
2019-03-31T14:28:35.213Z,20.80
2019-03-31T14:31:39.117Z,20.40
2019-03-31T14:34:42.932Z,20.50
2019-03-31T14:37:46.812Z,20.80
2019-03-31T14:40:50.724Z,21.00
2019-03-31T14:43:54.601Z,20.90
2019-03-31T14:46:58.572Z,20.70
2019-03-31T14:50:02.542Z,20.40
2019-03-31T14:53:06.850Z,20.00
2019-03-31T14:56:10.946Z,19.70
2019-03-31T14:59:14.853Z,19.30
2019-03-31T15:02:18.678Z,19.10
2019-03-31T15:05:22.534Z,19.10
2019-03-31T15:08:26.484Z,19.10
2019-03-31T15:11:30.318Z,18.90
2019-03-31T15:14:34.210Z,18.90
2019-03-31T15:17:38.091Z,19.00
2019-03-31T15:20:41.967Z,18.80
2019-03-31T15:23:46.138Z,18.90
2019-03-31T15:26:50.006Z,18.80
2019-03-31T15:29:53.888Z,18.60
2019-03-31T15:32:58.138Z,18.50
2019-03-31T15:36:02.202Z,18.50
2019-03-31T15:39:09.327Z,18.30
2019-03-31T15:42:13.476Z,18.10
2019-03-31T15:45:17.448Z,18.10
2019-03-31T15:48:21.349Z,17.90
2019-03-31T15:51:25.329Z,17.80
2019-03-31T15:54:29.335Z,17.70
2019-03-31T15:57:33.230Z,17.70
2019-03-31T16:00:37.295Z,17.60
2019-03-31T16:03:41.162Z,17.40
2019-03-31T16:06:45.009Z,17.30
2019-03-31T16:09:49.046Z,17.20
2019-03-31T16:12:55.870Z,17.00
2019-03-31T16:15:59.770Z,16.90
2019-03-31T16:19:03.778Z,16.90
2019-03-31T16:22:07.668Z,17.00
2019-03-31T16:25:16.689Z,16.90
2019-03-31T16:28:22.020Z,16.90
2019-03-31T16:31:25.933Z,16.90
2019-03-31T16:34:30.479Z,16.80
2019-03-31T16:37:34.374Z,16.70
2019-03-31T16:40:38.284Z,16.60
2019-03-31T16:43:42.147Z,16.50
2019-03-31T16:46:46.028Z,16.50
2019-03-31T16:49:50.277Z,16.60
2019-03-31T16:52:54.409Z,16.50
2019-03-31T16:55:58.506Z,16.50
2019-03-31T16:59:04.031Z,16.30
2019-03-31T17:02:07.962Z,16.20
2019-03-31T17:05:21.578Z,16.10
2019-03-31T17:08:17.565Z,15.90
2019-03-31T17:11:21.633Z,16.00
2019-03-31T17:14:25.449Z,15.90
2019-03-31T17:17:29.433Z,15.80
2019-03-31T17:20:33.371Z,15.60
2019-03-31T17:23:37.221Z,15.60
2019-03-31T17:26:41.075Z,15.40
2019-03-31T17:29:44.969Z,15.40
2019-03-31T17:32:48.860Z,15.30
2019-03-31T17:35:52.720Z,15.10
2019-03-31T17:38:56.576Z,15.00
2019-03-31T17:42:00.446Z,14.90
2019-03-31T17:45:08.376Z,14.80
2019-03-31T17:48:12.260Z,14.70
2019-03-31T17:51:17.327Z,14.70
2019-03-31T17:54:21.290Z,14.70
2019-03-31T17:57:26.340Z,14.70
2019-03-31T18:00:32.614Z,14.60
2019-03-31T18:03:36.516Z,14.60
2019-03-31T18:06:40.404Z,14.40
2019-03-31T18:09:44.327Z,14.20
2019-03-31T18:12:48.257Z,14.10
2019-03-31T18:15:52.132Z,14.10
2019-03-31T18:18:56.015Z,14.10
2019-03-31T18:21:59.856Z,14.00
2019-03-31T18:25:04.687Z,13.80
2019-03-31T18:28:08.530Z,13.70
2019-03-31T18:31:12.486Z,13.60
2019-03-31T18:34:16.436Z,13.50
2019-03-31T18:37:20.383Z,13.40
2019-03-31T18:40:34.921Z,13.40
2019-03-31T18:43:29.965Z,13.40
2019-03-31T18:46:34.059Z,13.20
2019-03-31T18:49:37.945Z,13.10
2019-03-31T18:52:41.926Z,13.00
2019-03-31T18:55:47.407Z,13.00
2019-03-31T18:59:01.880Z,13.00
2019-03-31T19:02:25.256Z,13.00
2019-03-31T19:05:47.468Z,13.00
2019-03-31T19:08:59.036Z,12.80
2019-03-31T19:12:07.454Z,12.70
2019-03-31T19:15:19.221Z,12.50
2019-03-31T19:18:24.715Z,12.50
2019-03-31T19:21:39.265Z,12.50
2019-03-31T19:24:47.641Z,12.50
2019-03-31T19:27:53.145Z,12.40
2019-03-31T19:31:15.046Z,12.30
2019-03-31T19:34:20.525Z,12.10
2019-03-31T19:37:28.982Z,12.10
2019-03-31T19:41:03.287Z,12.00
2019-03-31T19:44:11.082Z,11.80
2019-03-31T19:47:16.543Z,11.70
2019-03-31T19:50:37.105Z,11.60
2019-03-31T19:53:52.830Z,11.60
2019-03-31T19:57:01.096Z,11.60
2019-03-31T20:00:08.396Z,11.50
2019-03-31T20:03:16.764Z,11.50
2019-03-31T20:06:25.163Z,11.60
2019-03-31T20:09:33.620Z,11.60
2019-03-31T20:12:55.526Z,11.50
2019-03-31T20:16:02.769Z,11.30
2019-03-31T20:19:14.251Z,11.20
2019-03-31T20:22:22.613Z,11.20
2019-03-31T20:25:28.235Z,11.20
2019-03-31T20:28:42.591Z,11.20
2019-03-31T20:32:04.106Z,11.30
2019-03-31T20:35:09.757Z,11.20
2019-03-31T20:38:18.003Z,11.20
2019-03-31T20:41:29.378Z,11.20
2019-03-31T20:44:33.259Z,11.20
2019-03-31T20:47:37.188Z,11.10
2019-03-31T20:50:41.058Z,11.00
2019-03-31T20:53:44.909Z,11.00
2019-03-31T20:56:48.848Z,11.00
2019-03-31T20:59:52.728Z,11.00
2019-03-31T21:02:56.620Z,11.10
2019-03-31T21:06:00.488Z,10.90
2019-03-31T21:09:06.313Z,10.80
2019-03-31T21:12:10.192Z,10.80
2019-03-31T21:15:14.166Z,10.80
2019-03-31T21:18:18.105Z,10.90
2019-03-31T21:21:21.940Z,10.90
2019-03-31T21:24:25.807Z,10.80
2019-03-31T21:27:29.639Z,10.60
2019-03-31T21:30:33.487Z,10.50
2019-03-31T21:33:37.386Z,10.40
2019-03-31T21:36:41.215Z,10.40
2019-03-31T21:39:45.089Z,10.30
2019-03-31T21:42:48.939Z,10.20
2019-03-31T21:45:52.828Z,10.20
2019-03-31T21:48:56.696Z,10.10
2019-03-31T21:52:00.586Z,10.10
2019-03-31T21:55:06.022Z,10.00
2019-03-31T21:58:09.918Z,10.00
2019-03-31T22:01:14.567Z,10.00
2019-03-31T22:04:18.410Z,10.00
2019-03-31T22:07:22.294Z,10.00
2019-03-31T22:10:26.144Z,10.00
2019-03-31T22:13:30.008Z,10.00
2019-03-31T22:16:33.850Z,9.90
2019-03-31T22:19:37.735Z,9.90
2019-03-31T22:22:41.680Z,9.80
2019-03-31T22:25:45.531Z,9.80
2019-03-31T22:28:49.442Z,9.60
2019-03-31T22:31:53.446Z,9.40
2019-03-31T22:34:57.303Z,9.10
2019-03-31T22:38:02.532Z,8.90
2019-03-31T22:41:06.522Z,8.80
2019-03-31T22:44:10.432Z,8.60
2019-03-31T22:47:14.268Z,8.50
2019-03-31T22:50:18.163Z,8.50
2019-03-31T22:53:22.046Z,8.60
2019-03-31T22:56:27.475Z,8.60
2019-03-31T22:59:31.378Z,8.60
2019-03-31T23:02:35.227Z,8.80
2019-03-31T23:05:39.107Z,8.90
2019-03-31T23:08:43.022Z,9.00
2019-03-31T23:11:46.890Z,9.00
2019-03-31T23:14:50.870Z,9.10
2019-03-31T23:17:54.716Z,9.10
2019-03-31T23:20:58.597Z,9.10
2019-03-31T23:24:02.488Z,9.20
2019-03-31T23:27:06.340Z,9.20
2019-03-31T23:30:11.209Z,9.20
2019-03-31T23:33:15.086Z,9.10
2019-03-31T23:36:18.966Z,9.00
2019-03-31T23:39:22.831Z,8.90
2019-03-31T23:42:28.230Z,8.80
2019-03-31T23:45:33.187Z,8.80
2019-03-31T23:48:37.059Z,8.70
2019-03-31T23:51:40.905Z,8.80
2019-03-31T23:54:44.810Z,8.70
2019-03-31T23:57:48.638Z,8.80
